x

West Bermuda - 240 Nm West Of Bermuda (41048) Wave Buoy

12:50am - Mon 24th Apr 2017 All times are UTC.

  • Sig Wave height 4.9ft
  • Swell Direction
  • Peak Period 11s
  • Average Period 7s
  • Wind
    11mph, 16mph gusts
  • Sea Temp 71°f
  • Air Temp 71°f
  • Sea Pressure 1018.1mb

More Historic Weather Station data

Upgrade to MSW Pro to gain access to the past 30 days of data for over 8000 Wavebouys and Weather Stations around the globe.

Join Pro

Comparision Forecast

View Surf forecast
   
Mon 04/24 12:50am 5ft 11s 7s 11 16 mph 1018.1mb 71f 71f
12:40am 5ft  -  7s 11 13 mph 1018mb 71f 71f
12:30am  -   -   -  11 16 mph 1018mb 71f 71f
12:20am  -   -   -  11 13 mph 1017.8mb 71f 71f
12:10am  -   -   -  9 13 mph 1017.6mb 71f 71f
12:00am  -   -   -  9 13 mph 1017.8mb 71f 71f
Sun 04/23 11:50pm 5ft 11s 7s 11 13 mph 1017.6mb 71f 71f
11:40pm 5ft  -  7s 9 13 mph 1017.6mb 71f 71f
11:30pm  -   -   -  11 13 mph 1017.6mb 71f 71f
11:20pm  -   -   -  9 13 mph 1017.5mb 71f 71f
11:10pm  -   -   -  9 13 mph 1017.5mb 71f 71f
11:00pm  -   -   -  9 11 mph 1017.5mb 71f 71f
10:50pm 5ft 11s 7s 11 13 mph 1017.5mb 71f 71f
10:40pm 5ft  -  7s 11 13 mph 1017.4mb 71f 71f
10:30pm  -   -   -  11 13 mph 1017.4mb 71f 71f
10:20pm  -   -   -  11 13 mph 1017.4mb 71f 71f
10:10pm  -   -   -  11 13 mph 1017.4mb 71f 71f
10:00pm  -   -   -  11 13 mph 1017.4mb 71f 71f
9:50pm 5ft 11s 7s 9 13 mph 1017.4mb 71f 71f
9:40pm 5ft  -  7s 11 13 mph 1017.3mb 71f 71f
9:30pm  -   -   -  11 13 mph 1017.3mb 71f 71f
9:20pm  -   -   -  11 13 mph 1017.3mb 71f 71f
9:10pm  -   -   -  11 13 mph 1017.1mb 71f 71f
9:00pm  -   -   -  11 13 mph 1017mb 71f 71f
8:50pm 5ft 11s 7s 11 16 mph 1017.1mb 71f 71f
8:40pm  -   -   -  11 16 mph 1017.1mb 71f 71f
8:30pm  -   -   -  11 13 mph 1017mb 71f 71f
8:20pm  -   -   -  9 13 mph 1017mb 71f 71f
8:10pm  -   -   -  11 16 mph 1017mb 71f 71f
8:00pm  -   -   -  11 16 mph 1017mb 71f 71f
7:50pm 5ft 11s 7s 11 13 mph 1017mb 71f 71f
7:40pm 5ft  -  7s 11 16 mph 1017mb 71f 71f
7:30pm  -   -   -  11 18 mph 1017mb 71f 71f
7:20pm  -   -   -  13 18 mph 1017mb 71f 71f
7:10pm  -   -   -  13 16 mph 1017mb 71f 71f
7:00pm  -   -   -  13 16 mph 1017mb 71f 71f
6:50pm 5ft 11s 7s 13 18 mph 1017.1mb 71f 71f
6:40pm 5ft  -  7s 13 18 mph 1017.3mb 71f 71f
6:30pm  -   -   -  13 16 mph 1017.4mb 71f 71f
6:20pm  -   -   -  13 16 mph 1017.5mb 71f 71f
6:10pm  -   -   -  13 18 mph 1017.5mb 71f 71f
6:00pm  -   -   -  13 16 mph 1017.6mb 71f 71f
5:50pm 5ft 11s 7s 11 13 mph 1017.8mb 71f 71f
5:40pm 5ft  -  7s 11 13 mph 1018mb 71f 71f
5:30pm  -   -   -  11 16 mph 1018mb 71f 71f
5:20pm  -   -   -  11 16 mph 1018mb 71f 71f
5:10pm  -   -   -  11 16 mph 1018mb 71f 71f
5:00pm  -   -   -  11 16 mph 1018mb 71f 71f
4:50pm 4.5ft 11s 7s 9 13 mph 1018mb 70f 71f
4:40pm 4.5ft  -  7s 11 13 mph 1018mb 70f 71f
4:30pm  -   -   -  11 13 mph 1018.1mb 70f 71f
4:20pm  -   -   -  9 13 mph 1018.1mb 70f 71f
4:10pm  -   -   -  9 13 mph 1018.3mb 70f 71f
4:00pm  -   -   -  9 11 mph 1018.4mb 70f 71f
3:50pm 5ft 11s 7s 9 11 mph 1018.5mb 70f 71f
3:40pm 5ft  -  7s 9 11 mph 1018.6mb 70f 71f
3:30pm  -   -   -  9 11 mph 1018.6mb 70f 70f
3:20pm  -   -   -  11 13 mph 1018.6mb 70f 70f
3:10pm  -   -   -  11 13 mph 1018.5mb 70f 70f
3:00pm  -   -   -  9 11 mph 1018.6mb 70f 70f
2:50pm 4.5ft 11s 7s 9 13 mph 1018.5mb 70f 70f
2:40pm 4.5ft  -  7s 9 13 mph 1018.5mb 70f 70f
2:30pm  -   -   -  13 16 mph 1018.5mb 70f 70f
2:20pm  -   -   -  13 18 mph 1018.5mb 70f 70f
2:10pm  -   -   -  18 22 mph 1018.4mb 70f 70f
2:00pm  -   -   -  13 18 mph 1018.3mb 70f 71f
1:50pm 5ft 11s 7s 11 16 mph 1018.3mb 70f 71f
1:40pm 5ft  -  7s 13 18 mph 1018.3mb 70f 70f
1:30pm  -   -   -  13 16 mph 1018.4mb 70f 70f
1:20pm  -   -   -  11 13 mph 1018.4mb 70f 70f
1:10pm  -   -   -  9 11 mph 1018.4mb 70f 70f
1:00pm  -   -   -  9 11 mph 1018.4mb 70f 70f
12:50pm 4.5ft 11s 7s 7 9 mph 1018.3mb 70f 69f
12:40pm  -   -   -  9 13 mph 1018.3mb 70f 69f
12:30pm  -   -   -  7 11 mph 1018.3mb 70f 69f
12:20pm  -   -   -  7 11 mph 1018.3mb 70f 69f
12:10pm  -   -   -  7 11 mph 1018.1mb 70f 70f
12:00pm  -   -   -  9 16 mph 1018.1mb 70f 70f
11:50am 4.5ft 11s 7s 11 13 mph 1018mb 70f 71f
11:40am 4.5ft  -  7s 11 16 mph 1018mb 70f 71f
11:30am  -   -   -  11 16 mph 1018mb 70f 70f
11:20am  -   -   -  11 13 mph 1018mb 70f 70f
11:10am  -   -   -  11 13 mph 1017.8mb 70f 70f
11:00am  -   -   -  11 13 mph 1017.6mb 70f 70f
10:50am 4.5ft 11s 7s 11 13 mph 1017.6mb 70f 70f
10:40am 4.5ft  -  7s 9 13 mph 1017.5mb 70f 70f
10:30am  -   -   -  9 13 mph 1017.4mb 70f 70f
10:20am  -   -   -  9 13 mph 1017.4mb 70f 70f
10:10am  -   -   -  11 13 mph 1017.3mb 70f 70f
10:00am  -   -   -  11 13 mph 1017mb 70f 70f
9:50am 4.5ft 11s 7s 11 13 mph 1017mb 70f 70f
9:40am 4.5ft  -  7s 11 13 mph 1016.9mb 70f 70f
9:30am  -   -   -  11 13 mph 1016.8mb 70f 70f
9:20am  -   -   -  11 13 mph 1016.6mb 70f 70f
9:10am  -   -   -  11 16 mph 1016.5mb 70f 70f
9:00am  -   -   -  11 16 mph 1016.5mb 70f 70f
8:50am 5ft 11s 7s 11 16 mph 1016.5mb 70f 70f
8:40am 5ft  -  7s 11 16 mph 1016.5mb 70f 70f
8:30am  -   -   -  11 16 mph 1016.4mb 70f 70f
8:20am  -   -   -  13 16 mph 1016.3mb 70f 70f
8:10am  -   -   -  11 16 mph 1016.1mb 70f 70f
8:00am  -   -   -  11 16 mph 1016.1mb 70f 70f
7:50am 5ft 11s 8s 11 13 mph 1016.1mb 70f 70f
7:40am 5ft  -  8s 11 13 mph 1016mb 70f 70f
7:30am  -   -   -  9 13 mph 1016.1mb 70f 70f
7:20am  -   -   -  9 13 mph 1016mb 70f 70f
7:10am  -   -   -  9 11 mph 1016.1mb 70f 70f
7:00am  -   -   -  9 11 mph 1016.3mb 70f 70f
6:50am 5ft 12s 7s 9 13 mph 1016.3mb - 70f
6:40am 5ft  -  7s 11 13 mph 1016.4mb 70f 70f
6:30am  -   -   -  11 13 mph 1016.3mb 70f 70f
6:20am  -   -   -  9 13 mph 1016.4mb 70f 70f
6:10am  -   -   -  9 11 mph 1016.5mb 71f 70f
6:00am  -   -   -  9 13 mph 1016.5mb 70f 70f
5:50am 5ft 11s 7s 9 13 mph 1016.6mb - 70f
5:40am 5ft  -  7s 9 11 mph 1016.9mb 70f 70f
5:30am  -   -   -  9 11 mph 1017.1mb 70f 70f
5:20am  -   -   -  9 13 mph 1017.3mb 70f 70f
5:10am  -   -   -  9 11 mph 1017.4mb 70f 70f
5:00am  -   -   -  9 13 mph 1017.5mb 71f 70f
4:50am 5ft 12s 8s 11 13 mph 1017.6mb 71f 70f
4:40am 5ft  -  8s 9 13 mph 1017.8mb 71f 70f
4:30am  -   -   -  11 13 mph 1017.9mb 71f 70f
4:20am  -   -   -  11 13 mph 1017.9mb 71f 70f
4:10am  -   -   -  11 13 mph 1017.9mb 71f 70f
4:00am  -   -   -  11 13 mph 1017.9mb 71f 70f
3:50am 4.5ft 11s 7s 11 13 mph 1017.9mb 71f 70f
3:40am 4.5ft  -  7s 9 11 mph 1018mb 71f 70f
3:30am  -   -   -  9 11 mph 1018mb 70f 70f
3:20am  -   -   -  11 13 mph 1018mb 70f 70f
3:10am  -   -   -  9 13 mph 1018mb 70f 70f
3:00am  -   -   -  9 13 mph 1018mb 70f 70f
2:50am 4.5ft 12s 7s 9 13 mph 1018.1mb 70f 70f
2:40am  -   -   -  9 13 mph 1018.1mb 70f 70f
2:30am  -   -   -  9 13 mph 1018.3mb 70f 70f
2:20am  -   -   -  11 13 mph 1018.4mb 70f 70f
2:10am  -   -   -  11 16 mph 1018.5mb 70f 70f
2:00am  -   -   -  11 16 mph 1018.3mb 70f 70f
1:50am 5ft 12s 7s 11 16 mph 1018.4mb 70f 70f
1:40am 5ft  -  7s 11 16 mph 1018.3mb - 70f
1:30am  -   -   -  11 16 mph 1018.3mb 70f 70f
1:20am  -   -   -  11 16 mph 1018.3mb - 70f
1:10am  -   -   -  11 16 mph 1018.4mb - 70f
1:00am  -   -   -  11 16 mph 1018.3mb 70f 70f
12:40am 6ft 12s 8s  -  mph - - -
12:30am  -   -   -  13 16 mph 1018.1mb 71f 70f
12:20am  -   -   -  13 16 mph 1018mb 71f 70f
12:10am  -   -   -  13 16 mph 1018mb 71f 70f
12:00am  -   -   -  13 18 mph 1018mb 71f 70f
Sat 04/22 11:50pm 5ft 12s 8s 13 16 mph 1018mb 71f 70f
11:40pm 5ft  -  8s 13 16 mph 1018mb 71f 70f
11:30pm  -   -   -  13 16 mph 1018mb 71f 70f
11:20pm  -   -   -  11 18 mph 1018mb 71f 70f
11:10pm  -   -   -  13 16 mph 1018mb 71f 70f
11:00pm  -   -   -  11 16 mph 1018mb 71f 70f
10:50pm 5.5ft 12s 8s 11 16 mph 1017.9mb 71f 70f
10:40pm 5.5ft  -  8s 11 13 mph 1017.8mb 71f 70f
10:30pm  -   -   -  9 16 mph 1017.6mb 71f 70f
10:20pm  -   -   -  11 13 mph 1017.6mb 71f 70f
10:10pm  -   -   -  9 13 mph 1017.5mb 71f 71f
10:00pm  -   -   -  9 13 mph 1017.6mb 71f 71f
9:50pm 5ft 11s 8s 9 13 mph 1017.6mb 71f 71f
9:40pm 5ft  -  8s 9 13 mph 1017.6mb 71f 70f
9:30pm  -   -   -  11 16 mph 1017.6mb 71f 70f
9:20pm  -   -   -  9 13 mph 1017.8mb 71f 71f
9:10pm  -   -   -  9 13 mph 1017.8mb 71f 70f
9:00pm  -   -   -  9 13 mph 1017.9mb 71f 70f
8:50pm 5.5ft 12s 9s 9 11 mph 1017.8mb 71f 70f
8:40pm  -   -   -  9 13 mph 1017.8mb 71f 70f
8:30pm  -   -   -  9 13 mph 1017.8mb 71f 70f
8:20pm  -   -   -  9 13 mph 1017.8mb 71f 70f
8:10pm  -   -   -  11 13 mph 1017.8mb 71f 70f
8:00pm  -   -   -  11 13 mph 1017.6mb 71f 70f
7:50pm 5.5ft 12s 8s 11 13 mph 1017.8mb 71f 70f
7:40pm  -   -   -  11 13 mph 1017.9mb 71f 70f
7:30pm  -   -   -  9 13 mph 1017.8mb 71f 70f
7:20pm  -   -   -  9 13 mph 1017.9mb 71f 70f
7:10pm  -   -   -  7 11 mph 1017.9mb 71f 70f
7:00pm  -   -   -  7 11 mph 1018mb 71f 70f
6:50pm 6ft 12s 8s 9 11 mph 1018mb 71f 70f
6:40pm  -   -   -  7 11 mph 1018.1mb 71f 70f
6:30pm  -   -   -  7 11 mph 1018.3mb 71f 70f
6:20pm  -   -   -  9 11 mph 1018.4mb 71f 70f
6:10pm  -   -   -  9 11 mph 1018.4mb 71f 70f
6:00pm  -   -   -  7 9 mph 1018.4mb 71f 70f
5:50pm 5ft 12s 8s 7 9 mph 1018.4mb 71f 70f
5:40pm 5ft  -  8s 7 9 mph 1018.5mb 71f 70f
5:30pm  -   -   -  7 9 mph 1018.5mb 71f 70f
5:20pm  -   -   -  9 11 mph 1018.5mb 71f 70f
5:10pm  -   -   -  9 13 mph 1018.6mb 71f 70f
5:00pm  -   -   -  9 13 mph 1018.8mb 71f 70f
4:50pm 5ft 13s 7s 11 13 mph 1018.9mb 71f 70f
4:40pm 5ft  -  7s 11 13 mph 1019mb 70f 70f
4:30pm  -   -   -  11 16 mph 1019mb 70f 70f
4:20pm  -   -   -  11 16 mph 1019mb 70f 70f
4:10pm  -   -   -  11 16 mph 1019mb 70f 70f
4:00pm  -   -   -  11 16 mph 1019mb 70f 70f
3:50pm 5.5ft 13s 8s 11 16 mph 1019mb 70f 70f
3:40pm  -   -   -  11 16 mph 1019mb 70f 70f
3:30pm  -   -   -  11 16 mph 1019mb 70f 70f
3:20pm  -   -   -  11 13 mph 1019mb 70f 70f
3:10pm  -   -   -  11 16 mph 1019.3mb 70f 70f
3:00pm  -   -   -  11 16 mph 1019.4mb - 70f
2:50pm 5ft 12s 8s 11 13 mph 1019.4mb 70f 70f
2:40pm 5ft  -  8s 11 13 mph 1019.4mb 70f 70f
2:30pm  -   -   -  9 13 mph 1019.4mb 70f 70f
2:20pm  -   -   -  11 13 mph 1019.4mb 70f 70f
2:10pm  -   -   -  9 13 mph 1019.4mb 70f 70f
2:00pm  -   -   -  11 13 mph 1019.5mb 70f 70f
1:50pm 5ft 11s 8s 11 13 mph 1019.3mb 70f 70f
1:40pm  -   -   -  9 13 mph 1019.1mb 70f 70f
1:30pm  -   -   -  9 11 mph 1019mb 70f 70f
1:20pm  -   -   -  9 13 mph 1019mb 70f 70f
1:10pm  -   -   -  9 13 mph 1018.9mb 70f -
1:00pm  -   -   -  9 13 mph 1018.9mb 70f 70f
12:50pm 5.5ft 12s 8s 11 13 mph 1018.9mb 70f 70f
12:40pm  -   -   -  11 16 mph 1018.9mb 70f 70f
12:30pm  -   -   -  11 13 mph 1018.9mb 70f 69f
12:20pm  -   -   -  11 13 mph 1018.8mb 70f 69f
12:10pm  -   -   -  9 13 mph 1018.8mb 70f 69f
12:00pm  -   -   -  9 13 mph 1018.8mb 70f 70f
11:50am 5ft 13s 8s 9 13 mph 1018.6mb 70f 69f
11:40am  -   -   -  9 11 mph 1018.5mb 70f 69f
11:30am  -   -   -  9 11 mph 1018.5mb 70f 69f
11:20am  -   -   -  9 11 mph 1018.5mb 70f 69f
11:10am  -   -   -  9 13 mph 1018.4mb 70f 69f
11:00am  -   -   -  9 11 mph 1018.4mb 70f 69f
10:50am 6ft 12s 9s 9 11 mph 1018.3mb 70f 69f
10:40am 6ft  -  9s 9 11 mph 1018.3mb 70f 69f
10:30am  -   -   -  9 11 mph 1018.1mb 70f 69f
10:20am  -   -   -  9 13 mph 1018.1mb 70f 69f
10:10am  -   -   -  11 13 mph 1018mb 70f 69f
10:00am  -   -   -  11 13 mph 1017.9mb 70f 69f
9:50am 5ft 12s 8s 9 13 mph 1017.8mb 70f 69f
9:40am 5ft  -  8s 11 13 mph 1017.6mb 70f 69f
9:30am  -   -   -  11 13 mph 1017.6mb 70f 69f
9:20am  -   -   -  11 16 mph 1017.5mb 70f 69f
9:10am  -   -   -  11 16 mph 1017.5mb 70f 69f
9:00am  -   -   -  11 13 mph 1017.5mb 70f 69f
8:50am 5.5ft 12s 8s 11 13 mph 1017.4mb 70f 69f
8:40am 5.5ft  -  8s 11 13 mph 1017.3mb 70f 69f
8:30am  -   -   -  9 13 mph 1017.3mb 70f 69f
8:20am  -   -   -  11 13 mph 1017.4mb 70f 69f
8:10am  -   -   -  11 16 mph 1017.4mb 70f 69f
8:00am  -   -   -  11 13 mph 1017.4mb 70f 69f
7:50am 5ft 12s 8s 11 13 mph 1017.4mb 70f 69f
7:40am 5ft  -  8s 11 16 mph 1017.3mb 70f 69f
7:30am  -   -   -  11 16 mph 1017.3mb 70f 69f
7:20am  -   -   -  11 16 mph 1017.3mb 70f 69f
7:10am  -   -   -  11 16 mph 1017mb 70f 69f
7:00am  -   -   -  11 16 mph 1017mb 70f 69f
6:50am 5.5ft 12s 8s 11 16 mph 1017.1mb 70f 69f
6:40am 5.5ft  -  8s 11 16 mph 1017.1mb 70f 69f
6:30am  -   -   -  11 16 mph 1017.3mb 70f 69f
6:20am  -   -   -  11 16 mph 1017.5mb 70f 69f
6:10am  -   -   -  11 16 mph 1017.5mb 70f 69f
6:00am  -   -   -  11 13 mph 1017.5mb 70f 69f
5:50am 6ft 12s 9s 11 13 mph 1017.6mb 70f 69f
5:40am 6ft  -  9s 11 13 mph 1017.8mb 70f 69f
5:30am  -   -   -  11 16 mph 1018mb 70f 69f
5:20am  -   -   -  11 13 mph 1018mb 70f 69f
5:10am  -   -   -  11 16 mph 1018mb 70f 69f
5:00am  -   -   -  11 16 mph 1018mb 70f 69f
4:50am 5ft 12s 8s 11 16 mph 1018.3mb 70f 69f
4:40am 5ft  -  8s 11 16 mph 1018.5mb 70f 69f
4:30am  -   -   -  11 16 mph 1018.5mb 70f 69f
4:20am  -   -   -  11 13 mph 1018.5mb 70f 69f
4:10am  -   -   -  11 13 mph 1018.6mb 70f 69f
4:00am  -   -   -  11 16 mph 1018.8mb 70f 69f
3:50am 5.5ft 12s 8s 11 16 mph 1018.8mb 70f 69f
3:40am 5.5ft  -  8s 11 16 mph 1018.6mb 70f 69f
3:30am  -   -   -  11 16 mph 1018.6mb 70f 69f
3:20am  -   -   -  11 16 mph 1018.6mb 70f 69f
3:10am  -   -   -  11 16 mph 1018.6mb 70f 69f
3:00am  -   -   -  11 13 mph 1018.8mb 70f 69f
2:50am 5ft 12s 8s 11 16 mph 1018.6mb 70f 69f
2:40am  -   -   -  11 13 mph 1018.8mb 70f 69f
2:30am  -   -   -  11 13 mph 1018.6mb 70f 69f
2:20am  -   -   -  11 13 mph 1018.6mb 70f 69f
2:10am  -   -   -  11 13 mph 1018.8mb 70f 69f
2:00am  -   -   -  11 13 mph 1018.8mb 70f 69f
1:20am  -   -   -  9 13 mph 1018.8mb 70f 69f
1:10am  -   -   -  11 13 mph 1018.8mb 70f 69f
1:00am  -   -   -  9 13 mph 1018.8mb 70f 69f
12:50am 5ft 11s 8s 11 13 mph 1018.8mb 70f 69f
12:40am  -   -   -  11 16 mph 1018.6mb 70f 69f
12:30am  -   -   -  11 13 mph 1018.5mb 70f 69f
12:20am  -   -   -  11 13 mph 1018.5mb 70f 69f
12:10am  -   -   -  9 13 mph 1018.4mb 70f 69f
12:00am  -   -   -  11 13 mph 1018.5mb 70f 69f
Fri 04/21 11:50pm 4.5ft 11s 8s 11 13 mph 1018.4mb 70f 69f
11:40pm  -   -   -  9 13 mph 1018.4mb 70f 69f
11:30pm  -   -   -  9 13 mph 1018.3mb - 69f
11:20pm  -   -   -  9 13 mph 1018.3mb 70f 69f
11:10pm  -   -   -  9 13 mph 1018.3mb 70f 69f
11:00pm  -   -   -  9 13 mph 1018.3mb 70f 69f
10:50pm 4.5ft 10s 8s 9 13 mph 1018.3mb 70f 69f
10:40pm 4.5ft  -  8s 11 13 mph 1018.3mb 70f 69f
10:30pm  -   -   -  11 13 mph 1018.3mb 70f 69f
10:20pm  -   -   -  11 13 mph 1018.3mb 70f 69f
10:10pm  -   -   -  11 16 mph 1018.4mb - 69f
10:00pm  -   -   -  11 16 mph 1018.5mb 70f 69f
9:50pm 4.5ft 11s 8s 11 16 mph 1018.5mb 70f 69f
9:40pm  -   -   -  11 16 mph 1018.4mb 70f 69f
9:30pm  -   -   -  11 16 mph 1018.4mb 70f 69f
9:20pm  -   -   -  11 16 mph 1018.5mb 70f 69f
9:10pm  -   -   -  13 16 mph 1018.5mb 71f 69f
9:00pm  -   -   -  13 16 mph 1018.5mb 71f 69f
8:50pm 4ft 11s 7s 11 16 mph 1018.4mb 71f 69f
8:40pm 4ft  -  7s 11 16 mph 1018.3mb 71f 69f
8:30pm  -   -   -  11 13 mph 1018.1mb 71f 69f
8:20pm  -   -   -  11 16 mph 1018mb 70f 69f
8:10pm  -   -   -  11 16 mph 1018.1mb 70f 69f
8:00pm  -   -   -  11 13 mph 1018.1mb 71f 69f
7:50pm 4.5ft 10s 8s 11 16 mph 1018.1mb 71f 68f
7:40pm  -   -   -  11 16 mph 1018.1mb 71f 68f
7:30pm  -   -   -  11 16 mph 1018.3mb 71f 68f
7:20pm  -   -   -  11 13 mph 1018.4mb 70f 68f
7:10pm  -   -   -  11 16 mph 1018.5mb 71f 68f
7:00pm  -   -   -  11 16 mph 1018.6mb 70f 68f
6:50pm 5ft 11s 8s 11 16 mph 1018.8mb 70f 68f
6:40pm 5ft  -  8s 11 16 mph 1018.9mb 70f 68f
6:30pm  -   -   -  11 16 mph 1019mb 70f 68f
6:20pm  -   -   -  11 13 mph 1019mb 71f 68f
6:10pm  -   -   -  9 13 mph 1019.1mb 71f 68f
6:00pm  -   -   -  11 13 mph 1019.1mb 70f 68f
5:50pm 5ft 11s 8s 9 16 mph 1019.1mb 70f 68f
5:40pm 5ft  -  8s 11 16 mph 1019.3mb 70f 68f
5:30pm  -   -   -  11 13 mph 1019.4mb 70f 68f
5:20pm  -   -   -  11 16 mph 1019.5mb 70f 68f
5:10pm  -   -   -  11 16 mph 1019.5mb 70f 68f
5:00pm  -   -   -  11 13 mph 1019.5mb 70f 68f
4:50pm 4.5ft 11s 8s 9 16 mph 1019.5mb 70f 68f
4:40pm  -   -   -  9 13 mph 1019.5mb 70f 68f
4:30pm  -   -   -  9 13 mph 1019.6mb 70f 68f
4:20pm  -   -   -  9 13 mph 1019.6mb 70f 68f
4:10pm  -   -   -  9 13 mph 1019.8mb 70f 68f
4:00pm  -   -   -  9 11 mph 1019.8mb 70f 68f
3:50pm 4.5ft 11s 8s 9 13 mph 1019.8mb 70f 68f
3:40pm 4.5ft  -  8s 7 11 mph 1019.8mb 70f 68f
3:30pm  -   -   -  9 11 mph 1019.9mb 70f 68f
3:20pm  -   -   -  7 11 mph 1019.8mb 70f 68f
3:10pm  -   -   -  7 11 mph 1019.9mb 70f 68f
3:00pm  -   -   -  7 11 mph 1020mb 70f 67f
2:50pm 5ft 11s 8s 9 11 mph 1020mb 70f 67f
2:40pm 5ft  -  8s 7 11 mph 1020.1mb 70f 67f
2:30pm  -   -   -  7 11 mph 1020mb 70f 67f
2:20pm  -   -   -  9 13 mph 1020.1mb 70f 67f
2:10pm  -   -   -  7 11 mph 1020.1mb 70f 67f
2:00pm  -   -   -  9 11 mph 1020.1mb 70f 67f
1:40pm 5.5ft  -  8s 9 11 mph 1020.1mb 70f 67f
1:30pm  -   -   -  7 11 mph 1020.3mb 70f 67f
1:20pm  -   -   -  9 11 mph 1020.3mb 70f 67f
1:10pm  -   -   -  7 11 mph 1020.4mb 70f 67f
1:00pm  -   -   -  7 11 mph 1020.3mb - 67f
12:50pm 5.5ft 11s 8s 9 13 mph 1020.4mb 70f 67f
12:40pm  -   -   -  7 11 mph 1020.4mb 70f 67f
12:30pm  -   -   -  9 13 mph 1020.4mb 70f 67f
12:20pm  -   -   -  7 11 mph 1020.4mb 70f 67f
12:10pm  -   -   -  7 11 mph 1020.4mb 70f 67f
12:00pm  -   -   -  7 11 mph 1020.3mb 70f 67f
11:50am 5.5ft 11s 8s 7 11 mph 1020.3mb 70f 67f
11:40am  -   -   -  9 13 mph 1020.3mb 70f 67f
11:30am  -   -   -  7 11 mph 1020.1mb 70f 67f
11:20am  -   -   -  7 11 mph 1020.3mb 70f 67f
11:10am  -   -   -  7 13 mph 1020.3mb 70f 67f
11:00am  -   -   -  9 13 mph 1020.3mb 70f 67f
10:50am 5.5ft 9s 8s 9 13 mph 1020.3mb - 67f
10:40am 5.5ft  -  8s 9 13 mph 1020.1mb 70f 67f
10:30am  -   -   -  7 11 mph 1020mb 70f 66f
10:20am  -   -   -  9 13 mph 1020mb 70f 66f
10:10am  -   -   -  9 13 mph 1019.9mb 70f 66f
10:00am  -   -   -  9 13 mph 1019.8mb 70f 66f
9:50am 5.5ft 10s 8s 9 11 mph 1019.6mb 70f 66f
9:40am 5.5ft  -  8s 9 13 mph 1019.5mb 70f 66f
9:30am  -   -   -  9 13 mph 1019.5mb 70f 66f
9:20am  -   -   -  9 13 mph 1019.6mb 70f 66f
9:10am  -   -   -  9 11 mph 1019.6mb 70f 66f
9:00am  -   -   -  7 13 mph 1019.5mb 70f 66f
8:50am 6ft 10s 8s 9 11 mph 1019.4mb 70f 66f
8:40am 6ft  -  8s 7 11 mph 1019.5mb 70f 66f
8:30am  -   -   -  7 11 mph 1019.5mb 70f 66f
8:20am  -   -   -  7 13 mph 1019.5mb 70f 66f
8:10am  -   -   -  7 11 mph 1019.5mb 70f 66f
8:00am  -   -   -  7 13 mph 1019.5mb 70f 66f
7:50am 5ft 10s 8s 7 11 mph 1019.6mb 70f 66f
7:40am 5ft  -  8s 4 11 mph 1019.8mb 70f 66f
7:30am  -   -   -  7 11 mph 1020mb 70f 66f
7:20am  -   -   -  7 9 mph 1019.9mb 70f 66f
7:10am  -   -   -  7 9 mph 1019.9mb 70f 66f
7:00am  -   -   -  7 9 mph 1019.9mb 70f 66f
6:50am 6ft 9s 8s 7 9 mph 1020mb 70f 66f
6:40am 6ft  -  8s 4 9 mph 1020mb 70f 66f
6:30am  -   -   -  7 9 mph 1020mb 70f 66f
6:20am  -   -   -  4 9 mph 1020mb 70f 66f
6:10am  -   -   -  4 9 mph 1020mb 70f 66f
6:00am  -   -   -  4 7 mph 1020.1mb 70f 66f
5:50am 5ft 10s 8s 4 7 mph 1020.4mb 70f 66f
5:40am 5ft  -  8s 4 9 mph 1020.4mb 70f 66f
5:30am  -   -   -  2 7 mph 1020.5mb 70f 66f
5:20am  -   -   -  4 9 mph 1020.5mb 70f 66f
5:10am  -   -   -  2 7 mph 1020.6mb 70f 66f
5:00am  -   -   -  4 7 mph 1020.6mb 70f 66f
4:50am 5ft 10s 8s 4 7 mph 1020.8mb 70f 66f
4:40am 5ft  -  8s 4 9 mph 1020.6mb 70f 66f
4:30am  -   -   -  4 7 mph 1020.6mb 70f 66f
4:20am  -   -   -   -  4 mph 1021mb 70f 65f
4:10am  -   -   -  2 7 mph 1021.1mb 70f 65f
4:00am  -   -   -   -  2 mph 1021.3mb 70f 65f
3:50am 5ft 10s 8s  -  4 mph 1021.3mb 70f 65f
3:40am 5ft  -  8s  -  4 mph 1021.3mb 70f 65f
3:30am  -   -   -   -  4 mph 1021.1mb 70f 65f
3:20am  -   -   -   -  2 mph 1021.4mb 70f 66f
3:10am  -   -   -   -  2 mph 1021.5mb 70f 66f
3:00am  -   -   -   -  2 mph 1021.5mb 70f 66f
2:50am 5.5ft 10s 8s  -  2 mph 1021.5mb 70f 66f
2:40am  -   -   -   -  4 mph 1021.5mb 70f 66f
2:30am  -   -   -   -  4 mph 1021.5mb 70f 66f
2:20am  -   -   -  2 7 mph 1021.5mb 70f 66f
2:10am  -   -   -  2 7 mph 1021.6mb 70f 66f
2:00am  -   -   -  2 7 mph 1021.6mb 70f 66f
1:50am 5.5ft 10s 8s 4 7 mph 1021.8mb 70f 66f
1:40am 5.5ft  -  8s 4 7 mph 1021.8mb 70f 66f
1:30am  -   -   -  4 9 mph 1021.5mb 70f 66f
1:20am  -   -   -  4 7 mph 1021.5mb 70f -
1:10am  -   -   -  4 9 mph 1021.5mb 70f 66f
1:00am  -   -   -  4 7 mph 1021.5mb - 66f
12:50am 5.5ft 10s 8s 4 7 mph 1021.5mb 70f 66f
12:40am  -   -   -  4 9 mph 1021.5mb 70f 66f
12:30am  -   -   -  4 9 mph 1021.5mb 70f 66f
12:20am  -   -   -  4 7 mph 1021.5mb 70f 66f
12:10am  -   -   -  4 9 mph 1021.5mb 70f 66f
12:00am  -   -   -  4 9 mph 1021.5mb 70f 66f
Thu 04/20 11:50pm 5.5ft 10s 8s 4 9 mph 1021.5mb 70f 66f
11:40pm 5.5ft  -  8s 4 9 mph 1021.5mb 70f 66f
11:30pm  -   -   -  7 9 mph 1021.4mb 70f 66f
11:20pm  -   -   -  4 9 mph 1021.4mb 70f 66f
11:10pm  -   -   -  7 9 mph 1021.5mb 70f 66f
11:00pm  -   -   -  7 11 mph 1021.5mb 71f 66f
10:50pm 5.5ft 9s 7s 7 9 mph 1021.4mb 71f 66f
10:40pm 5.5ft  -  7s 7 9 mph 1021.5mb 71f 67f
10:30pm  -   -   -  4 9 mph 1021.5mb 70f 66f
10:20pm  -   -   -  7 11 mph 1021.5mb 70f 66f
10:10pm  -   -   -  7 9 mph 1021.5mb 71f 66f
10:00pm  -   -   -  4 11 mph 1021.6mb 71f 66f
9:50pm 5ft 10s 7s 7 11 mph 1021.5mb 71f 67f
9:40pm 5ft  -  7s 2 7 mph 1021.5mb 71f 67f
9:30pm  -   -   -  4 9 mph 1021.5mb 71f 67f
9:20pm  -   -   -  4 9 mph 1021.5mb 71f 67f
9:10pm  -   -   -  7 9 mph 1021.5mb 71f 67f
9:00pm  -   -   -  7 11 mph 1021.5mb 71f 67f
8:50pm 5ft 10s 7s 4 9 mph 1021.5mb 71f 67f
8:40pm 5ft  -  7s 4 9 mph 1021.6mb 71f 67f
8:30pm  -   -   -  4 9 mph 1021.6mb 71f 67f
8:20pm  -   -   -  4 9 mph 1021.5mb 71f 67f
8:10pm  -   -   -  4 7 mph 1021.5mb 71f 67f
8:00pm  -   -   -  4 9 mph 1021.5mb 71f 67f
7:50pm 6ft 11s 8s 4 7 mph 1021.5mb 71f 67f
7:40pm 6ft  -  8s 4 9 mph 1021.5mb 71f 67f
7:30pm  -   -   -  4 9 mph 1021.5mb 71f 67f
7:20pm  -   -   -  4 9 mph 1021.6mb 71f 67f
7:10pm  -   -   -  4 9 mph 1021.8mb 71f 67f
7:00pm  -   -   -  4 7 mph 1021.9mb 70f 67f
6:50pm 5ft 10s 7s 2 7 mph 1022mb 71f 67f
6:40pm 5ft  -  7s 4 9 mph 1022mb 70f 67f
6:30pm  -   -   -  4 9 mph 1022.1mb 70f 67f
6:20pm  -   -   -  4 9 mph 1022.4mb 70f 67f
6:10pm  -   -   -  7 9 mph 1022.5mb 71f 67f
6:00pm  -   -   -  7 9 mph 1022.6mb 71f 67f
5:50pm 5.5ft 10s 7s 7 11 mph 1022.8mb 70f 67f
5:40pm 5.5ft  -  7s 7 9 mph 1022.9mb 70f 67f
5:30pm  -   -   -  7 11 mph 1022.9mb 70f 67f
5:20pm  -   -   -  7 11 mph 1023mb 70f 67f
5:10pm  -   -   -  7 11 mph 1023mb 70f 67f
5:00pm  -   -   -  7 11 mph 1023mb 70f 67f
4:50pm 5ft 9s 7s 9 11 mph 1023.1mb 70f 67f
4:40pm 5ft  -  7s 7 11 mph 1023mb 70f 67f
4:30pm  -   -   -  9 13 mph 1023.3mb 70f 67f
4:20pm  -   -   -  9 11 mph 1023.4mb 70f 67f
4:10pm  -   -   -  9 13 mph 1023.4mb 70f 67f
4:00pm  -   -   -  9 11 mph 1023.5mb 70f 67f
3:50pm 5ft 9s 6s 9 13 mph 1023.5mb 70f 67f
3:40pm  -   -   -  9 16 mph 1023.6mb 70f 67f
3:30pm  -   -   -  11 13 mph 1023.6mb 70f 67f
3:20pm  -   -   -  11 13 mph 1023.8mb 70f 67f
3:10pm  -   -   -  11 16 mph 1023.9mb 70f 67f
3:00pm  -   -   -  11 16 mph 1023.9mb 70f 67f
2:50pm 5ft 9s 6s 11 16 mph 1023.9mb 70f 67f
2:40pm  -   -   -  11 16 mph 1023.9mb 70f 67f
2:30pm  -   -   -  11 16 mph 1024mb 70f 67f
2:20pm  -   -   -  13 18 mph 1024mb 70f 67f
2:10pm  -   -   -  13 16 mph 1024mb 70f 67f
2:00pm  -   -   -  13 16 mph 1024mb 70f 66f
1:50pm 5ft 9s 6s 13 18 mph 1024mb 70f 66f
1:40pm  -   -   -  13 20 mph 1023.9mb 70f 66f
1:30pm  -   -   -  13 20 mph 1023.9mb 70f 66f
1:20pm  -   -   -  16 20 mph 1023.9mb 70f 66f
1:10pm  -   -   -  16 20 mph 1023.9mb 70f 66f
1:00pm  -   -   -  16 20 mph 1023.9mb 70f 66f
12:50pm 5.5ft 9s 6s 16 20 mph 1024mb 69f 66f
12:40pm  -   -   -  16 18 mph 1024mb 69f 66f
12:30pm  -   -   -  16 20 mph 1023.9mb 69f 66f
12:20pm  -   -   -  16 20 mph 1023.9mb 69f 66f
12:10pm  -   -   -  18 20 mph 1023.9mb 69f 66f
12:00pm  -   -   -  18 20 mph 1023.9mb 69f 66f
11:50am 5ft 9s 6s 18 22 mph 1023.8mb 69f 66f
11:40am  -   -   -  16 22 mph 1023.6mb 69f 66f
11:30am  -   -   -  13 20 mph 1023.8mb 69f 66f
11:20am  -   -   -  18 22 mph 1023.6mb 69f 66f
11:10am  -   -   -  13 22 mph 1023.5mb 69f 67f
11:00am  -   -   -  9 13 mph 1023.5mb 69f 67f
10:50am 5ft 10s 7s 9 13 mph 1023.4mb 69f 67f
10:40am 5ft  -  7s 9 13 mph 1023.3mb 69f 67f
10:30am  -   -   -  9 11 mph 1023mb 69f 67f
10:20am  -   -   -  9 11 mph 1023mb 69f 66f
10:10am  -   -   -  9 11 mph 1022.8mb 69f 66f
10:00am  -   -   -  9 11 mph 1022.8mb 69f 66f
9:50am 6ft 9s 7s 9 11 mph 1022.8mb 69f 66f
9:40am 6ft  -  7s 9 11 mph 1022.8mb 69f 66f
9:30am  -   -   -  9 11 mph 1022.6mb 69f 66f
9:20am  -   -   -  9 13 mph 1022.5mb 69f 66f
9:10am  -   -   -  9 13 mph 1022.5mb 69f 66f
9:00am  -   -   -  9 13 mph 1022.5mb 69f 66f
8:50am 5.5ft 9s 7s 9 11 mph 1022.5mb 69f 66f
8:40am  -   -   -  4 7 mph 1022.5mb 69f 66f
8:30am  -   -   -  4 9 mph 1022.5mb 69f 66f
8:20am  -   -   -  4 9 mph 1022.6mb 69f 66f
8:10am  -   -   -  7 9 mph 1022.8mb 70f 66f
8:00am  -   -   -  7 9 mph 1022.9mb 70f 67f
7:50am 6ft 9s 7s 7 9 mph 1023mb 70f 67f
7:40am 6ft  -  7s 7 9 mph 1023mb 70f 67f
7:30am  -   -   -  4 9 mph 1023mb 70f 67f
7:20am  -   -   -  7 9 mph 1023.1mb 70f 67f
7:10am  -   -   -  7 11 mph 1023.1mb 70f 67f
7:00am  -   -   -  7 9 mph 1023.3mb 70f 67f
6:50am 5.5ft 10s 7s 7 11 mph 1023.4mb 70f 67f
6:40am 5.5ft  -  7s 7 9 mph 1023.4mb 69f 67f
6:30am  -   -   -  7 9 mph 1023.5mb 69f 66f
6:20am  -   -   -  7 9 mph 1023.5mb 69f 67f
6:10am  -   -   -  7 11 mph 1023.6mb 69f 67f
6:00am  -   -   -  7 9 mph 1023.8mb 69f 67f
5:50am 5.5ft 9s 6s 7 9 mph 1024mb 69f 67f
5:40am  -   -   -  7 11 mph 1024mb 70f 67f
5:30am  -   -   -  7 11 mph 1024.3mb 70f 67f
5:20am  -   -   -  7 11 mph 1024.5mb 70f 67f
5:10am  -   -   -  7 9 mph 1024.7mb 70f 67f
5:00am  -   -   -  7 11 mph 1024.8mb 70f 67f
4:50am 5.5ft 10s 6s 9 11 mph 1025mb 70f 67f
4:40am 5.5ft  -  6s 9 11 mph 1025mb 70f 67f
4:30am  -   -   -  9 13 mph 1025.3mb 70f 67f
4:20am  -   -   -  9 13 mph 1025.3mb 70f 67f
4:10am  -   -   -  9 13 mph 1025.3mb 70f 67f
4:00am  -   -   -  11 13 mph 1025.5mb 70f 67f
3:50am 5ft 8s 6s 11 16 mph 1025.5mb 70f 67f
3:40am 5ft  -  6s 13 16 mph 1025.5mb 70f 67f
3:30am  -   -   -  13 16 mph 1025.5mb 70f 67f
3:20am  -   -   -  13 16 mph 1025.5mb 70f 67f
3:10am  -   -   -  13 16 mph 1025.5mb 70f 67f
3:00am  -   -   -  13 16 mph 1025.5mb 70f 67f
2:50am  -   -   -  13 16 mph 1025.3mb 70f 67f
2:40am  -   -   -  13 16 mph 1025.2mb 70f 67f
2:30am  -   -   -   -  mph 1025.2mb 70f -
2:20am  -   -   -  13 18 mph 1025.3mb 71f 68f
2:10am  -   -   -  13 20 mph 1025.3mb 71f 68f
2:00am  -   -   -  16 20 mph 1025.3mb 71f 68f
1:50am 6ft 8s 6s 16 20 mph 1025.3mb 71f 68f